createdAt,value
2018-08-02T00:02:08.243Z,22.30
2018-08-02T00:04:36.748Z,22.30
2018-08-02T00:07:05.192Z,22.20
2018-08-02T00:16:58.025Z,22.10
2018-08-02T00:19:26.425Z,22.00
2018-08-02T00:21:54.876Z,22.10
2018-08-02T00:24:23.286Z,22.10
2018-08-02T00:26:51.729Z,22.00
2018-08-02T00:29:20.143Z,22.00
2018-08-02T00:34:16.733Z,21.90
2018-08-02T00:36:45.160Z,21.80
2018-08-02T00:39:13.840Z,21.80
2018-08-02T00:41:42.447Z,21.70
2018-08-02T00:44:11.682Z,21.60
2018-08-02T00:46:40.140Z,21.50
2018-08-02T00:49:08.880Z,21.50
2018-08-02T00:51:37.357Z,21.50
2018-08-02T00:56:33.889Z,21.40
2018-08-02T01:01:30.420Z,21.30
2018-08-02T01:03:58.891Z,21.30
2018-08-02T01:06:27.372Z,21.20
2018-08-02T01:08:55.840Z,21.20
2018-08-02T01:11:24.254Z,21.10
2018-08-02T01:13:52.705Z,21.10
2018-08-02T01:16:21.148Z,21.10
2018-08-02T01:18:49.627Z,21.10
2018-08-02T01:21:18.116Z,21.00
2018-08-02T01:23:46.600Z,21.00
2018-08-02T01:26:15.021Z,20.90
2018-08-02T01:28:43.445Z,20.90
2018-08-02T01:31:11.902Z,20.90
2018-08-02T01:33:40.390Z,20.90
2018-08-02T01:36:08.797Z,20.80
2018-08-02T01:38:37.312Z,20.80
2018-08-02T01:41:05.925Z,20.80
2018-08-02T01:43:34.408Z,20.90
2018-08-02T01:46:02.916Z,20.90
2018-08-02T01:48:31.384Z,20.90
2018-08-02T01:50:59.786Z,20.90
2018-08-02T01:53:28.235Z,20.80
2018-08-02T01:55:56.673Z,20.80
2018-08-02T01:58:25.159Z,20.80
2018-08-02T02:03:21.890Z,20.80
2018-08-02T02:05:50.320Z,20.80
2018-08-02T02:08:18.744Z,20.80
2018-08-02T02:10:47.169Z,20.70
2018-08-02T02:13:15.623Z,20.70
2018-08-02T02:15:44.168Z,20.70
2018-08-02T02:18:12.622Z,20.70
2018-08-02T02:23:09.424Z,20.70
2018-08-02T02:25:37.977Z,20.70
2018-08-02T02:28:06.424Z,20.60
2018-08-02T02:30:34.873Z,20.60
2018-08-02T02:33:03.388Z,20.60
2018-08-02T02:35:31.769Z,20.70
2018-08-02T02:38:00.197Z,20.70
2018-08-02T02:40:28.643Z,20.70
2018-08-02T02:42:57.045Z,20.70
2018-08-02T02:45:25.505Z,20.70
2018-08-02T02:51:01.413Z,20.60
2018-08-02T02:53:29.860Z,20.60
2018-08-02T02:55:58.290Z,20.60
2018-08-02T02:58:26.716Z,20.60
2018-08-02T03:00:55.156Z,20.60
2018-08-02T03:03:23.669Z,20.50
2018-08-02T03:05:52.113Z,20.50
2018-08-02T03:08:20.503Z,20.50
2018-08-02T03:10:48.936Z,20.40
2018-08-02T03:13:17.367Z,20.40
2018-08-02T03:18:13.933Z,20.30
2018-08-02T03:20:42.423Z,20.30
2018-08-02T03:23:10.808Z,20.20
2018-08-02T03:25:39.233Z,20.30
2018-08-02T03:28:07.657Z,20.30
2018-08-02T03:30:36.106Z,20.30
2018-08-02T03:33:04.492Z,20.30
2018-08-02T03:35:32.930Z,20.20
2018-08-02T03:38:01.332Z,20.20
2018-08-02T03:40:29.756Z,20.20
2018-08-02T03:42:58.138Z,20.10
2018-08-02T03:45:26.604Z,20.10
2018-08-02T03:47:54.999Z,20.10
2018-08-02T03:50:23.440Z,20.10
2018-08-02T03:52:51.852Z,20.10
2018-08-02T03:55:20.481Z,20.10
2018-08-02T03:57:48.916Z,20.10
2018-08-02T04:00:17.364Z,20.00
2018-08-02T04:02:45.781Z,20.10
2018-08-02T04:05:14.229Z,20.10
2018-08-02T04:07:42.675Z,20.10
2018-08-02T04:10:11.172Z,20.10
2018-08-02T04:12:39.653Z,20.10
2018-08-02T04:17:37.160Z,20.10
2018-08-02T04:20:05.895Z,20.10
2018-08-02T04:22:34.320Z,20.10
2018-08-02T04:25:03.052Z,20.10
2018-08-02T04:27:31.900Z,20.10
2018-08-02T04:34:57.148Z,20.20
2018-08-02T04:37:26.184Z,20.20
2018-08-02T04:39:54.777Z,20.30
2018-08-02T04:42:23.223Z,20.30
2018-08-02T04:44:51.630Z,20.30
2018-08-02T04:47:20.066Z,20.40
2018-08-02T04:52:16.700Z,20.50
2018-08-02T04:54:45.119Z,20.60
2018-08-02T04:57:13.547Z,20.70
2018-08-02T05:02:10.120Z,20.80
2018-08-02T05:04:38.584Z,20.80
2018-08-02T05:07:06.994Z,20.90
2018-08-02T05:09:35.585Z,20.90
2018-08-02T05:12:04.053Z,20.90
2018-08-02T05:14:32.476Z,21.00
2018-08-02T05:17:00.956Z,20.90
2018-08-02T05:19:29.374Z,21.00
2018-08-02T05:21:57.819Z,21.10
2018-08-02T05:24:26.217Z,21.20
2018-08-02T05:26:54.652Z,21.30
2018-08-02T05:29:23.062Z,21.30
2018-08-02T05:34:19.683Z,21.50
2018-08-02T05:36:48.588Z,21.60
2018-08-02T05:39:16.527Z,21.60
2018-08-02T05:41:44.990Z,21.70
2018-08-02T05:44:13.405Z,21.70
2018-08-02T05:46:41.867Z,21.80
2018-08-02T05:49:10.298Z,22.00
2018-08-02T05:51:38.777Z,22.10
2018-08-02T05:54:07.339Z,22.10
2018-08-02T05:56:35.765Z,22.20
2018-08-02T05:59:04.169Z,22.40
2018-08-02T06:01:32.590Z,22.40
2018-08-02T06:06:29.104Z,22.80
2018-08-02T06:08:57.534Z,23.10
2018-08-02T06:11:25.990Z,23.40
2018-08-02T06:13:54.425Z,23.60
2018-08-02T06:16:22.901Z,23.90
2018-08-02T06:18:51.304Z,24.20
2018-08-02T06:21:19.752Z,24.40
2018-08-02T06:23:48.152Z,24.60
2018-08-02T06:26:16.553Z,24.90
2018-08-02T06:28:45.001Z,25.20
2018-08-02T06:31:13.417Z,25.50
2018-08-02T06:33:41.861Z,25.90
2018-08-02T06:36:10.253Z,26.40
2018-08-02T06:38:38.717Z,26.80
2018-08-02T06:41:07.219Z,27.40
2018-08-02T06:43:42.671Z,28.20
2018-08-02T06:46:14.579Z,28.30
2018-08-02T06:48:41.925Z,29.60
2018-08-02T06:51:10.355Z,30.20
2018-08-02T06:53:38.768Z,30.60
2018-08-02T06:56:07.226Z,30.50
2018-08-02T06:58:35.681Z,30.90
2018-08-02T07:01:04.118Z,31.00
2018-08-02T07:03:32.616Z,30.90
2018-08-02T07:06:01.028Z,30.30
2018-08-02T07:08:29.471Z,30.20
2018-08-02T07:10:57.877Z,30.10
2018-08-02T07:13:26.318Z,29.60
2018-08-02T07:15:54.775Z,29.60
2018-08-02T07:18:23.230Z,30.20
2018-08-02T07:20:51.697Z,30.70
2018-08-02T07:23:20.159Z,31.30
2018-08-02T07:25:48.569Z,31.40
2018-08-02T07:28:17.017Z,32.20
2018-08-02T07:30:45.425Z,31.80
2018-08-02T07:33:13.897Z,32.30
2018-08-02T07:35:42.490Z,32.60
2018-08-02T07:38:10.924Z,32.90
2018-08-02T07:40:39.366Z,33.60
2018-08-02T07:43:07.975Z,33.90
2018-08-02T07:45:36.365Z,33.90
2018-08-02T07:48:04.853Z,35.00
2018-08-02T07:50:33.301Z,34.50
2018-08-02T07:53:01.737Z,34.10
2018-08-02T07:55:30.173Z,34.60
2018-08-02T07:57:58.657Z,34.00
2018-08-02T08:00:27.702Z,33.90
2018-08-02T08:02:56.127Z,33.60
2018-08-02T08:05:24.544Z,33.60
2018-08-02T08:07:53.125Z,32.80
2018-08-02T08:10:21.552Z,32.50
2018-08-02T08:12:50.018Z,32.90
2018-08-02T08:15:18.421Z,33.40
2018-08-02T08:17:46.885Z,33.10
2018-08-02T08:20:15.344Z,32.70
2018-08-02T08:22:44.187Z,30.90
2018-08-02T08:25:12.619Z,31.60
2018-08-02T08:27:41.019Z,32.40
2018-08-02T08:30:09.477Z,33.90
2018-08-02T08:32:37.873Z,34.80
2018-08-02T08:35:06.324Z,35.60
2018-08-02T08:37:34.854Z,35.90
2018-08-02T08:40:03.322Z,36.00
2018-08-02T08:42:31.802Z,36.00
2018-08-02T08:45:00.336Z,36.50
2018-08-02T08:47:28.731Z,36.70
2018-08-02T08:49:57.205Z,36.60
2018-08-02T08:52:25.621Z,36.50
2018-08-02T08:54:54.063Z,36.40
2018-08-02T08:57:22.493Z,35.10
2018-08-02T08:59:54.740Z,33.70
2018-08-02T09:02:23.627Z,33.50
2018-08-02T09:04:52.096Z,34.50
2018-08-02T09:07:20.528Z,35.20
2018-08-02T09:09:49.278Z,35.30
2018-08-02T09:12:17.724Z,36.50
2018-08-02T09:14:46.180Z,36.50
2018-08-02T09:17:14.600Z,36.40
2018-08-02T09:19:43.108Z,35.70
2018-08-02T09:22:11.508Z,35.30
2018-08-02T09:24:39.937Z,35.40
2018-08-02T09:27:08.463Z,36.10
2018-08-02T09:29:36.860Z,36.50
2018-08-02T09:32:05.324Z,36.00
2018-08-02T09:34:33.780Z,36.40
2018-08-02T09:37:02.235Z,36.80
2018-08-02T09:39:30.672Z,36.60
2018-08-02T09:41:59.096Z,36.30
2018-08-02T09:44:27.529Z,35.10
2018-08-02T09:46:56.040Z,34.30
2018-08-02T09:49:24.406Z,33.00
2018-08-02T09:51:52.851Z,33.00
2018-08-02T09:54:21.297Z,33.20
2018-08-02T09:56:49.707Z,33.60
2018-08-02T10:01:51.772Z,33.80
2018-08-02T10:04:20.198Z,33.80
2018-08-02T10:06:48.593Z,36.30
2018-08-02T10:09:17.102Z,36.80
2018-08-02T10:11:45.636Z,36.80
2018-08-02T10:14:14.093Z,37.20
2018-08-02T10:16:42.496Z,37.90
2018-08-02T10:19:10.900Z,37.60
2018-08-02T10:21:39.396Z,37.50
2018-08-02T10:24:07.824Z,37.70
2018-08-02T10:26:36.241Z,38.10
2018-08-02T10:29:04.675Z,39.60
2018-08-02T10:31:33.093Z,39.40
2018-08-02T10:34:01.515Z,39.10
2018-08-02T10:36:29.949Z,39.00
2018-08-02T10:38:58.333Z,39.60
2018-08-02T10:41:26.773Z,39.40
2018-08-02T10:43:55.400Z,39.30
2018-08-02T10:46:23.876Z,37.80
2018-08-02T10:48:52.307Z,37.80
2018-08-02T10:51:20.749Z,35.80
2018-08-02T10:56:17.453Z,33.40
2018-08-02T10:58:45.816Z,33.00
2018-08-02T11:01:14.289Z,32.90
2018-08-02T11:03:42.753Z,32.50
2018-08-02T11:06:11.212Z,32.10
2018-08-02T11:08:39.640Z,31.80
2018-08-02T11:11:08.463Z,31.50
2018-08-02T11:13:36.867Z,31.20
2018-08-02T11:16:05.324Z,30.90
2018-08-02T11:18:33.764Z,30.70
2018-08-02T11:21:02.242Z,30.70
2018-08-02T11:23:30.864Z,30.70
2018-08-02T11:26:02.722Z,30.80
2018-08-02T11:28:31.290Z,30.60
2018-08-02T11:30:59.737Z,30.50
2018-08-02T11:33:28.144Z,30.80
2018-08-02T11:38:25.180Z,30.60
2018-08-02T11:40:53.617Z,30.20
2018-08-02T11:43:22.138Z,30.00
2018-08-02T11:45:50.613Z,29.80
2018-08-02T11:48:19.044Z,29.70
2018-08-02T11:50:47.472Z,29.80
2018-08-02T11:53:15.865Z,29.90
2018-08-02T11:55:44.517Z,30.10
2018-08-02T11:58:12.944Z,30.10
2018-08-02T12:00:41.481Z,30.10
2018-08-02T12:03:09.929Z,30.20
2018-08-02T12:05:38.378Z,30.30
2018-08-02T12:10:34.900Z,30.20
2018-08-02T12:13:03.399Z,30.00
2018-08-02T12:15:31.806Z,29.80
2018-08-02T12:18:00.561Z,29.80
2018-08-02T12:20:28.966Z,29.90
2018-08-02T12:22:57.469Z,29.90
2018-08-02T12:25:25.894Z,29.90
2018-08-02T12:27:54.323Z,30.00
2018-08-02T12:30:22.725Z,30.30
2018-08-02T12:32:51.162Z,30.30
2018-08-02T12:35:19.596Z,30.10
2018-08-02T12:37:48.036Z,30.10
2018-08-02T12:40:16.501Z,30.10
2018-08-02T12:42:44.944Z,30.10
2018-08-02T12:45:13.393Z,30.20
2018-08-02T12:47:41.966Z,30.00
2018-08-02T12:50:10.399Z,29.80
2018-08-02T12:52:38.891Z,29.90
2018-08-02T12:55:07.306Z,30.00
2018-08-02T12:57:35.777Z,30.10
2018-08-02T13:00:04.869Z,30.10
2018-08-02T13:02:33.288Z,30.10
2018-08-02T13:05:01.698Z,30.00
2018-08-02T13:07:30.116Z,30.00
2018-08-02T13:12:26.682Z,29.70
2018-08-02T13:14:55.081Z,29.80
2018-08-02T13:17:23.942Z,30.00
2018-08-02T13:19:52.332Z,30.10
2018-08-02T13:22:20.798Z,30.20
2018-08-02T13:24:49.254Z,30.10
2018-08-02T13:27:17.716Z,30.10
2018-08-02T13:29:46.073Z,30.10
2018-08-02T13:32:14.516Z,30.10
2018-08-02T13:34:43.012Z,30.10
2018-08-02T13:37:11.457Z,30.30
2018-08-02T13:39:39.896Z,30.30
2018-08-02T13:42:08.417Z,30.40
2018-08-02T13:44:36.860Z,30.30
2018-08-02T13:47:05.477Z,30.40
2018-08-02T13:49:33.885Z,30.50
2018-08-02T13:52:02.411Z,30.50
2018-08-02T13:54:30.904Z,30.40
2018-08-02T13:56:59.316Z,30.20
2018-08-02T13:59:27.760Z,30.00
2018-08-02T14:01:56.252Z,29.80
2018-08-02T14:04:24.692Z,29.70
2018-08-02T14:06:53.096Z,29.70
2018-08-02T14:09:21.520Z,29.80
2018-08-02T14:11:49.947Z,29.80
2018-08-02T14:14:18.438Z,29.90
2018-08-02T14:16:46.845Z,29.90
2018-08-02T14:19:15.299Z,30.10
2018-08-02T14:21:43.725Z,30.00
2018-08-02T14:24:12.165Z,29.90
2018-08-02T14:26:40.569Z,29.90
2018-08-02T14:29:09.016Z,29.80
2018-08-02T14:31:37.430Z,29.80
2018-08-02T14:34:06.039Z,29.80
2018-08-02T14:36:34.436Z,29.80
2018-08-02T14:39:02.978Z,30.10
2018-08-02T14:41:31.383Z,30.10
2018-08-02T14:43:59.837Z,30.00
2018-08-02T14:46:28.313Z,29.90
2018-08-02T14:48:56.773Z,29.80
2018-08-02T14:51:25.208Z,29.90
2018-08-02T14:53:53.748Z,29.90
2018-08-02T14:56:22.158Z,29.90
2018-08-02T14:58:50.696Z,29.90
2018-08-02T15:01:19.087Z,29.80
2018-08-02T15:03:47.516Z,29.80
2018-08-02T15:06:15.996Z,29.70
2018-08-02T15:08:44.452Z,29.80
2018-08-02T15:11:13.141Z,29.80
2018-08-02T15:13:41.585Z,29.70
2018-08-02T15:16:10.034Z,29.70
2018-08-02T15:18:38.477Z,29.60
2018-08-02T15:21:07.093Z,29.60
2018-08-02T15:26:03.636Z,29.50
2018-08-02T15:28:32.075Z,29.50
2018-08-02T15:31:00.503Z,29.50
2018-08-02T15:33:28.934Z,29.60
2018-08-02T15:35:57.333Z,29.70
2018-08-02T15:38:25.811Z,29.70
2018-08-02T15:40:54.513Z,29.80
2018-08-02T15:43:22.930Z,29.70
2018-08-02T15:45:51.394Z,29.70
2018-08-02T15:48:19.840Z,29.70
2018-08-02T15:53:16.457Z,29.60
2018-08-02T15:55:44.930Z,29.50
2018-08-02T15:58:13.431Z,29.50
2018-08-02T16:00:41.918Z,29.40
2018-08-02T16:03:10.530Z,29.30
2018-08-02T16:05:39.013Z,29.10
2018-08-02T16:08:07.413Z,29.00
2018-08-02T16:10:35.912Z,28.80
2018-08-02T16:13:04.329Z,28.60
2018-08-02T16:15:32.857Z,28.50
2018-08-02T16:18:01.290Z,28.40
2018-08-02T16:20:29.789Z,28.40
2018-08-02T16:22:58.203Z,28.40
2018-08-02T16:25:26.665Z,28.40
2018-08-02T16:27:55.092Z,28.40
2018-08-02T16:30:23.568Z,28.40
2018-08-02T16:32:51.944Z,28.30
2018-08-02T16:35:20.432Z,28.30
2018-08-02T16:37:48.933Z,28.30
2018-08-02T16:40:17.344Z,28.30
2018-08-02T16:42:45.821Z,28.40
2018-08-02T16:45:14.252Z,28.30
2018-08-02T16:47:42.784Z,28.30
2018-08-02T16:50:11.388Z,28.20
2018-08-02T16:52:39.790Z,28.20
2018-08-02T16:55:08.248Z,28.10
2018-08-02T16:57:36.652Z,28.10
2018-08-02T17:00:05.435Z,28.10
2018-08-02T17:02:33.926Z,28.10
2018-08-02T17:05:02.427Z,28.10
2018-08-02T17:07:30.848Z,28.00
2018-08-02T17:09:59.284Z,28.00
2018-08-02T17:12:27.701Z,27.90
2018-08-02T17:14:56.205Z,27.90
2018-08-02T17:17:24.615Z,27.80
2018-08-02T17:19:53.065Z,27.70
2018-08-02T17:22:21.505Z,27.70
2018-08-02T17:24:49.941Z,27.80
2018-08-02T17:27:18.348Z,27.80
2018-08-02T17:29:46.789Z,27.80
2018-08-02T17:32:15.238Z,27.90
2018-08-02T17:34:43.633Z,28.00
2018-08-02T17:37:12.116Z,28.10
2018-08-02T17:39:40.500Z,28.00
2018-08-02T17:42:08.939Z,27.90
2018-08-02T17:44:37.373Z,27.90
2018-08-02T17:47:06.021Z,27.90
2018-08-02T17:49:34.452Z,27.80
2018-08-02T17:52:02.925Z,27.70
2018-08-02T17:54:31.328Z,27.60
2018-08-02T17:56:59.788Z,27.50
2018-08-02T17:59:28.212Z,27.40
2018-08-02T18:01:56.672Z,27.40
2018-08-02T18:04:25.118Z,27.30
2018-08-02T18:06:53.771Z,27.20
2018-08-02T18:09:22.237Z,27.10
2018-08-02T18:11:50.684Z,27.00
2018-08-02T18:14:19.132Z,26.90
2018-08-02T18:19:15.720Z,26.70
2018-08-02T18:21:44.147Z,26.70
2018-08-02T18:24:12.605Z,26.60
2018-08-02T18:26:41.102Z,26.50
2018-08-02T18:29:09.562Z,26.50
2018-08-02T18:31:38.014Z,26.40
2018-08-02T18:36:34.637Z,26.20
2018-08-02T18:39:04.288Z,26.20
2018-08-02T18:41:32.726Z,26.10
2018-08-02T18:44:01.149Z,26.00
2018-08-02T18:46:29.625Z,25.90
2018-08-02T18:48:58.110Z,25.90
2018-08-02T18:51:26.584Z,25.90
2018-08-02T18:53:54.994Z,25.80
2018-08-02T18:56:23.485Z,25.80
2018-08-02T18:58:51.893Z,25.70
2018-08-02T19:01:20.340Z,25.60
2018-08-02T19:03:48.771Z,25.50
2018-08-02T19:06:17.280Z,25.50
2018-08-02T19:08:45.801Z,25.50
2018-08-02T19:11:14.541Z,25.40
2018-08-02T19:13:42.950Z,25.30
2018-08-02T19:16:11.369Z,25.30
2018-08-02T19:18:39.813Z,25.30
2018-08-02T19:21:08.240Z,25.20
2018-08-02T19:23:36.718Z,25.10
2018-08-02T19:26:05.161Z,25.00
2018-08-02T19:28:33.770Z,25.00
2018-08-02T19:31:02.238Z,24.90
2018-08-02T19:33:30.701Z,24.90
2018-08-02T19:35:59.101Z,24.80
2018-08-02T19:40:55.736Z,24.80
2018-08-02T19:43:24.181Z,24.70
2018-08-02T19:48:20.793Z,24.60
2018-08-02T19:50:49.190Z,24.60
2018-08-02T19:53:17.657Z,24.60
2018-08-02T19:55:46.112Z,24.60
2018-08-02T19:58:14.534Z,24.50
2018-08-02T20:00:42.945Z,24.50
2018-08-02T20:03:11.369Z,24.40
2018-08-02T20:05:39.781Z,24.40
2018-08-02T20:08:08.664Z,24.30
2018-08-02T20:10:37.245Z,24.30
2018-08-02T20:13:05.810Z,24.30
2018-08-02T20:15:34.549Z,24.20
2018-08-02T20:20:31.210Z,24.20
2018-08-02T20:22:59.721Z,24.10
2018-08-02T20:25:28.149Z,24.10
2018-08-02T20:27:56.651Z,24.10
2018-08-02T20:30:25.058Z,24.10
2018-08-02T20:35:21.809Z,24.00
2018-08-02T20:37:50.541Z,24.00
2018-08-02T20:40:18.974Z,24.00
2018-08-02T20:42:47.536Z,24.00
2018-08-02T20:45:15.984Z,24.00
2018-08-02T20:47:44.418Z,23.90
2018-08-02T20:50:12.886Z,23.90
2018-08-02T20:52:41.330Z,23.80
2018-08-02T20:55:09.889Z,23.70
2018-08-02T20:57:38.305Z,23.70
2018-08-02T21:00:09.374Z,23.70
2018-08-02T21:05:05.991Z,23.70
2018-08-02T21:07:34.429Z,23.60
2018-08-02T21:12:31.025Z,23.50
2018-08-02T21:14:59.457Z,23.50
2018-08-02T21:17:27.930Z,23.40
2018-08-02T21:19:56.364Z,23.30
2018-08-02T21:22:24.815Z,23.30
2018-08-02T21:24:53.516Z,23.30
2018-08-02T21:27:23.177Z,23.30
2018-08-02T21:29:51.624Z,23.30
2018-08-02T21:32:20.022Z,23.20
2018-08-02T21:34:48.457Z,23.20
2018-08-02T21:39:45.070Z,23.20
2018-08-02T21:42:13.530Z,23.20
2018-08-02T21:44:42.026Z,23.20
2018-08-02T21:47:10.476Z,23.10
2018-08-02T21:49:38.929Z,23.10
2018-08-02T21:52:07.374Z,23.10
2018-08-02T21:54:35.831Z,23.10
2018-08-02T21:57:04.357Z,23.10
2018-08-02T21:59:32.777Z,23.10
2018-08-02T22:02:01.289Z,23.00
2018-08-02T22:04:29.820Z,22.90
2018-08-02T22:09:32.004Z,22.90
2018-08-02T22:12:05.984Z,22.80
2018-08-02T22:14:39.713Z,22.80
2018-08-02T22:17:08.145Z,22.80
2018-08-02T22:19:36.818Z,22.80
2018-08-02T22:22:05.261Z,22.70
2018-08-02T22:24:33.722Z,22.80
2018-08-02T22:27:02.137Z,22.70
2018-08-02T22:29:30.581Z,22.70
2018-08-02T22:31:59.019Z,22.70
2018-08-02T22:34:27.492Z,22.70
2018-08-02T22:36:55.899Z,22.60
2018-08-02T22:41:52.441Z,22.60
2018-08-02T22:44:20.905Z,22.50
2018-08-02T22:46:49.301Z,22.50
2018-08-02T22:49:17.779Z,22.40
2018-08-02T22:51:46.241Z,22.40
2018-08-02T22:54:14.644Z,22.40
2018-08-02T22:56:43.074Z,22.40
2018-08-02T22:59:11.465Z,22.40
2018-08-02T23:01:39.905Z,22.40
2018-08-02T23:04:08.327Z,22.40
2018-08-02T23:06:36.753Z,22.30
2018-08-02T23:09:06.944Z,22.30
2018-08-02T23:11:35.557Z,22.30
2018-08-02T23:14:04.200Z,22.20
2018-08-02T23:16:32.633Z,22.20
2018-08-02T23:19:01.074Z,22.10
2018-08-02T23:21:29.532Z,22.10
2018-08-02T23:23:57.964Z,22.10
2018-08-02T23:26:26.425Z,22.10
2018-08-02T23:28:54.973Z,22.10
2018-08-02T23:31:23.417Z,22.00
2018-08-02T23:33:51.843Z,22.00
2018-08-02T23:36:20.280Z,22.00
2018-08-02T23:38:48.701Z,22.00
2018-08-02T23:41:17.160Z,22.00
2018-08-02T23:43:46.444Z,22.00
2018-08-02T23:46:14.970Z,21.90
2018-08-02T23:48:43.384Z,21.90
2018-08-02T23:51:11.837Z,21.90
2018-08-02T23:53:40.233Z,21.90
2018-08-02T23:56:08.666Z,21.90
2018-08-02T23:58:37.096Z,22.00
